createdAt,value
2019-06-27T00:00:53.416Z,17.02
2019-06-27T00:01:53.422Z,16.96
2019-06-27T00:02:53.394Z,16.91
2019-06-27T00:03:53.383Z,16.99
2019-06-27T00:04:53.379Z,16.99
2019-06-27T00:05:53.360Z,16.90
2019-06-27T00:06:53.370Z,16.85
2019-06-27T00:07:53.338Z,16.88
2019-06-27T00:08:53.327Z,16.91
2019-06-27T00:09:53.320Z,16.87
2019-06-27T00:10:53.305Z,16.81
2019-06-27T00:11:53.307Z,16.77
2019-06-27T00:12:53.287Z,16.80
2019-06-27T00:13:53.271Z,16.80
2019-06-27T00:14:53.263Z,16.82
2019-06-27T00:15:53.255Z,16.85
2019-06-27T00:16:53.286Z,16.80
2019-06-27T00:17:53.240Z,16.69
2019-06-27T00:18:53.218Z,16.77
2019-06-27T00:19:53.210Z,16.81
2019-06-27T00:20:53.196Z,16.65
2019-06-27T00:21:53.183Z,16.75
2019-06-27T00:22:53.199Z,16.67
2019-06-27T00:23:53.160Z,16.62
2019-06-27T00:24:53.151Z,16.66
2019-06-27T00:25:53.144Z,16.54
2019-06-27T00:26:57.419Z,16.60
2019-06-27T00:27:53.139Z,16.57
2019-06-27T00:28:53.124Z,16.52
2019-06-27T00:29:53.094Z,16.55
2019-06-27T00:30:53.082Z,16.52
2019-06-27T00:31:53.107Z,16.48
2019-06-27T00:32:53.138Z,16.44
2019-06-27T00:33:53.057Z,16.47
2019-06-27T00:34:53.040Z,16.54
2019-06-27T00:35:53.049Z,16.51
2019-06-27T00:36:53.012Z,16.51
2019-06-27T00:37:53.032Z,16.51
2019-06-27T00:38:52.997Z,16.44
2019-06-27T00:39:52.982Z,16.47
2019-06-27T00:40:52.970Z,16.44
2019-06-27T00:41:52.959Z,16.42
2019-06-27T00:42:52.956Z,16.42
2019-06-27T00:43:52.952Z,16.33
2019-06-27T00:44:52.964Z,16.32
2019-06-27T00:45:52.920Z,16.34
2019-06-27T00:46:52.909Z,16.29
2019-06-27T00:47:52.895Z,16.33
2019-06-27T00:48:52.892Z,16.27
2019-06-27T00:49:52.870Z,16.27
2019-06-27T00:50:52.895Z,16.30
2019-06-27T00:51:52.846Z,16.32
2019-06-27T00:52:52.834Z,16.33
2019-06-27T00:53:52.833Z,16.23
2019-06-27T00:54:52.821Z,16.26
2019-06-27T00:55:52.804Z,16.23
2019-06-27T00:56:52.801Z,16.18
2019-06-27T00:57:52.779Z,16.23
2019-06-27T00:58:52.780Z,16.16
2019-06-27T00:59:52.762Z,16.16
2019-06-27T01:00:52.746Z,16.17
2019-06-27T01:01:52.733Z,16.17
2019-06-27T01:02:52.723Z,16.25
2019-06-27T01:03:52.710Z,16.18
2019-06-27T01:04:52.937Z,16.13
2019-06-27T01:05:52.702Z,16.16
2019-06-27T01:06:52.682Z,16.11
2019-06-27T01:07:52.667Z,16.26
2019-06-27T01:08:52.656Z,16.25
2019-06-27T01:09:52.662Z,16.16
2019-06-27T01:10:52.638Z,16.14
2019-06-27T01:11:52.627Z,16.14
2019-06-27T01:12:52.612Z,16.18
2019-06-27T01:13:52.607Z,16.26
2019-06-27T01:14:52.619Z,16.23
2019-06-27T01:15:52.576Z,16.25
2019-06-27T01:16:52.566Z,16.22
2019-06-27T01:17:52.553Z,16.11
2019-06-27T01:18:52.550Z,16.17
2019-06-27T01:19:52.537Z,16.14
2019-06-27T01:20:52.535Z,16.17
2019-06-27T01:21:52.524Z,16.22
2019-06-27T01:22:52.503Z,16.17
2019-06-27T01:23:52.490Z,16.11
2019-06-27T01:24:52.487Z,16.18
2019-06-27T01:25:52.485Z,16.10
2019-06-27T01:26:52.459Z,16.13
2019-06-27T01:27:52.448Z,16.11
2019-06-27T01:28:52.433Z,16.14
2019-06-27T01:29:52.433Z,16.03
2019-06-27T01:30:52.436Z,16.10
2019-06-27T01:31:52.412Z,16.16
2019-06-27T01:32:52.387Z,16.08
2019-06-27T01:33:52.492Z,16.13
2019-06-27T01:34:52.366Z,16.16
2019-06-27T01:35:52.366Z,16.14
2019-06-27T01:36:52.360Z,16.14
2019-06-27T01:37:52.338Z,16.26
2019-06-27T01:38:52.333Z,16.16
2019-06-27T01:39:52.310Z,16.26
2019-06-27T01:40:52.298Z,16.22
2019-06-27T01:41:52.342Z,16.14
2019-06-27T01:42:52.280Z,16.16
2019-06-27T01:43:52.573Z,16.16
2019-06-27T01:44:52.256Z,16.22
2019-06-27T01:45:52.245Z,16.22
2019-06-27T01:46:52.228Z,16.11
2019-06-27T01:47:52.235Z,16.18
2019-06-27T01:48:52.210Z,16.08
2019-06-27T01:49:52.206Z,16.22
2019-06-27T01:50:52.188Z,16.17
2019-06-27T01:51:52.179Z,16.18
2019-06-27T01:52:52.176Z,16.14
2019-06-27T01:53:52.151Z,16.18
2019-06-27T01:54:52.142Z,16.11
2019-06-27T01:55:52.131Z,16.18
2019-06-27T01:56:52.137Z,16.13
2019-06-27T01:57:52.121Z,16.03
2019-06-27T01:58:52.099Z,16.14
2019-06-27T01:59:52.089Z,16.14
2019-06-27T02:00:52.082Z,16.22
2019-06-27T02:01:52.068Z,16.23
2019-06-27T02:02:52.145Z,16.18
2019-06-27T02:03:52.065Z,16.22
2019-06-27T02:04:52.039Z,16.22
2019-06-27T02:05:52.026Z,16.17
2019-06-27T02:06:52.019Z,16.22
2019-06-27T02:07:52.002Z,16.07
2019-06-27T02:08:51.999Z,16.13
2019-06-27T02:09:51.979Z,16.18
2019-06-27T02:10:51.964Z,16.10
2019-06-27T02:11:51.950Z,16.14
2019-06-27T02:12:51.942Z,16.13
2019-06-27T02:13:51.970Z,16.11
2019-06-27T02:14:51.927Z,16.22
2019-06-27T02:15:51.925Z,16.18
2019-06-27T02:16:51.894Z,16.11
2019-06-27T02:17:51.898Z,16.16
2019-06-27T02:18:51.878Z,16.10
2019-06-27T02:19:51.906Z,16.17
2019-06-27T02:20:51.853Z,16.16
2019-06-27T02:21:51.846Z,16.08
2019-06-27T02:22:51.830Z,16.16
2019-06-27T02:23:51.818Z,16.16
2019-06-27T02:24:51.812Z,16.25
2019-06-27T02:25:51.814Z,16.17
2019-06-27T02:26:51.787Z,16.14
2019-06-27T02:28:03.029Z,16.16
2019-06-27T02:28:52.764Z,16.16
2019-06-27T02:29:51.763Z,16.13
2019-06-27T02:30:51.746Z,16.14
2019-06-27T02:31:51.731Z,16.13
2019-06-27T02:32:51.738Z,16.16
2019-06-27T02:33:51.708Z,16.17
2019-06-27T02:34:51.696Z,16.03
2019-06-27T02:35:51.689Z,16.07
2019-06-27T02:36:51.676Z,16.08
2019-06-27T02:37:51.664Z,16.10
2019-06-27T02:38:51.684Z,16.06
2019-06-27T02:39:51.641Z,16.17
2019-06-27T02:40:51.626Z,16.04
2019-06-27T02:41:51.634Z,16.06
2019-06-27T02:42:51.613Z,16.06
2019-06-27T02:43:51.605Z,16.06
2019-06-27T02:44:51.607Z,16.08
2019-06-27T02:45:51.599Z,16.03
2019-06-27T02:46:51.569Z,16.10
2019-06-27T02:47:51.558Z,16.03
2019-06-27T02:48:51.547Z,16.04
2019-06-27T02:49:51.539Z,16.10
2019-06-27T02:50:51.532Z,16.08
2019-06-27T02:51:51.508Z,15.99
2019-06-27T02:52:51.501Z,16.06
2019-06-27T02:53:51.490Z,16.03
2019-06-27T02:54:51.476Z,16.01
2019-06-27T02:55:51.473Z,15.99
2019-06-27T02:56:51.454Z,16.04
2019-06-27T02:57:51.438Z,15.96
2019-06-27T02:58:51.432Z,16.07
2019-06-27T02:59:51.415Z,16.06
2019-06-27T03:00:51.428Z,15.96
2019-06-27T03:01:51.401Z,16.08
2019-06-27T03:02:51.387Z,16.08
2019-06-27T03:03:51.385Z,15.96
2019-06-27T03:04:51.358Z,16.08
2019-06-27T03:05:51.351Z,16.03
2019-06-27T03:06:51.361Z,16.01
2019-06-27T03:07:51.367Z,15.91
2019-06-27T03:08:51.318Z,15.98
2019-06-27T03:09:51.314Z,15.98
2019-06-27T03:10:51.302Z,15.91
2019-06-27T03:11:51.286Z,15.95
2019-06-27T03:12:51.278Z,15.96
2019-06-27T03:13:51.291Z,15.93
2019-06-27T03:14:51.257Z,15.92
2019-06-27T03:15:51.240Z,15.88
2019-06-27T03:16:51.229Z,15.92
2019-06-27T03:17:51.220Z,15.91
2019-06-27T03:18:51.203Z,15.91
2019-06-27T03:19:51.237Z,15.88
2019-06-27T03:20:51.199Z,15.88
2019-06-27T03:21:51.175Z,15.84
2019-06-27T03:22:51.157Z,15.86
2019-06-27T03:23:51.166Z,15.88
2019-06-27T03:24:51.163Z,15.92
2019-06-27T03:25:51.130Z,15.88
2019-06-27T03:26:51.115Z,15.84
2019-06-27T03:27:51.113Z,15.85
2019-06-27T03:28:53.837Z,15.84
2019-06-27T03:29:51.087Z,15.91
2019-06-27T03:30:51.085Z,15.85
2019-06-27T03:31:51.065Z,15.95
2019-06-27T03:32:51.054Z,15.81
2019-06-27T03:33:51.083Z,15.89
2019-06-27T03:34:51.053Z,15.85
2019-06-27T03:35:51.033Z,15.81
2019-06-27T03:36:51.007Z,15.85
2019-06-27T03:37:50.991Z,15.85
2019-06-27T03:38:50.984Z,15.73
2019-06-27T03:39:50.985Z,15.77
2019-06-27T03:40:50.959Z,15.84
2019-06-27T03:41:50.949Z,15.81
2019-06-27T03:42:50.958Z,15.78
2019-06-27T03:43:50.939Z,15.81
2019-06-27T03:44:50.914Z,15.78
2019-06-27T03:45:50.902Z,15.84
2019-06-27T03:46:50.894Z,15.84
2019-06-27T03:47:50.923Z,15.80
2019-06-27T03:48:50.873Z,15.81
2019-06-27T03:49:50.859Z,15.81
2019-06-27T03:50:50.872Z,15.89
2019-06-27T03:51:50.843Z,15.88
2019-06-27T03:52:50.830Z,15.84
2019-06-27T03:53:50.816Z,15.84
2019-06-27T03:54:50.808Z,15.89
2019-06-27T03:55:50.818Z,15.86
2019-06-27T03:56:50.783Z,15.89
2019-06-27T03:57:50.791Z,15.95
2019-06-27T03:59:06.345Z,15.95
2019-06-27T03:59:51.745Z,15.95
2019-06-27T04:00:50.735Z,15.89
2019-06-27T04:01:50.725Z,15.86
2019-06-27T04:02:50.718Z,15.91
2019-06-27T04:03:50.754Z,15.89
2019-06-27T04:04:50.696Z,15.88
2019-06-27T04:05:51.405Z,15.88
2019-06-27T04:06:50.672Z,15.93
2019-06-27T04:07:50.671Z,15.85
2019-06-27T04:08:50.731Z,15.88
2019-06-27T04:09:50.653Z,15.84
2019-06-27T04:10:50.631Z,15.86
2019-06-27T04:11:50.623Z,15.86
2019-06-27T04:12:50.608Z,15.91
2019-06-27T04:13:50.599Z,15.89
2019-06-27T04:14:50.592Z,15.86
2019-06-27T04:15:50.584Z,15.89
2019-06-27T04:16:50.565Z,15.92
2019-06-27T04:17:50.546Z,15.91
2019-06-27T04:18:50.580Z,15.93
2019-06-27T04:19:50.545Z,16.04
2019-06-27T04:20:50.522Z,16.06
2019-06-27T04:21:50.510Z,15.99
2019-06-27T04:22:50.490Z,16.04
2019-06-27T04:23:50.487Z,15.98
2019-06-27T04:24:50.487Z,16.06
2019-06-27T04:25:50.463Z,16.06
2019-06-27T04:26:50.461Z,16.04
2019-06-27T04:27:50.464Z,16.03
2019-06-27T04:28:50.426Z,15.99
2019-06-27T04:29:50.419Z,16.04
2019-06-27T04:30:50.413Z,16.04
2019-06-27T04:31:50.393Z,16.01
2019-06-27T04:32:50.391Z,16.10
2019-06-27T04:33:50.379Z,16.06
2019-06-27T04:34:50.385Z,16.08
2019-06-27T04:35:50.349Z,15.96
2019-06-27T04:36:50.347Z,15.96
2019-06-27T04:37:50.325Z,15.93
2019-06-27T04:38:50.311Z,15.99
2019-06-27T04:39:50.327Z,16.04
2019-06-27T04:40:50.295Z,16.08
2019-06-27T04:41:50.282Z,16.07
2019-06-27T04:42:50.267Z,16.06
2019-06-27T04:43:50.268Z,16.17
2019-06-27T04:44:50.257Z,16.25
2019-06-27T04:45:50.254Z,16.26
2019-06-27T04:46:50.235Z,16.27
2019-06-27T04:47:50.229Z,16.27
2019-06-27T04:48:50.207Z,16.33
2019-06-27T04:49:50.249Z,16.29
2019-06-27T04:50:50.189Z,16.42
2019-06-27T04:51:50.174Z,16.44
2019-06-27T04:52:50.157Z,16.42
2019-06-27T04:53:50.158Z,16.51
2019-06-27T04:54:50.152Z,16.42
2019-06-27T04:55:50.137Z,16.45
2019-06-27T04:56:50.121Z,16.45
2019-06-27T04:57:50.105Z,16.42
2019-06-27T04:58:50.105Z,16.48
2019-06-27T04:59:53.949Z,16.37
2019-06-27T05:00:50.090Z,16.48
2019-06-27T05:01:50.062Z,16.48
2019-06-27T05:02:50.063Z,16.44
2019-06-27T05:03:50.033Z,16.51
2019-06-27T05:04:50.061Z,16.47
2019-06-27T05:05:50.030Z,16.51
2019-06-27T05:06:50.002Z,16.42
2019-06-27T05:07:50.009Z,16.44
2019-06-27T05:08:49.977Z,16.45
2019-06-27T05:09:49.975Z,16.59
2019-06-27T05:10:49.965Z,16.59
2019-06-27T05:11:49.964Z,16.44
2019-06-27T05:12:49.936Z,16.45
2019-06-27T05:13:49.936Z,16.47
2019-06-27T05:14:49.987Z,16.45
2019-06-27T05:15:49.908Z,16.48
2019-06-27T05:16:49.903Z,16.48
2019-06-27T05:17:49.878Z,16.42
2019-06-27T05:18:49.871Z,16.50
2019-06-27T05:19:49.862Z,16.47
2019-06-27T05:20:49.860Z,16.47
2019-06-27T05:21:49.852Z,16.47
2019-06-27T05:22:49.821Z,16.59
2019-06-27T05:23:49.817Z,16.50
2019-06-27T05:24:49.799Z,16.47
2019-06-27T05:25:49.790Z,16.47
2019-06-27T05:26:49.792Z,16.54
2019-06-27T05:27:49.768Z,16.54
2019-06-27T05:28:49.759Z,16.60
2019-06-27T05:29:49.827Z,16.54
2019-06-27T05:30:51.550Z,16.45
2019-06-27T05:31:49.738Z,16.57
2019-06-27T05:32:49.707Z,16.57
2019-06-27T05:33:49.715Z,16.55
2019-06-27T05:34:49.687Z,16.60
2019-06-27T05:35:49.676Z,16.57
2019-06-27T05:36:49.667Z,16.62
2019-06-27T05:37:49.673Z,16.65
2019-06-27T05:38:49.652Z,16.70
2019-06-27T05:39:49.638Z,16.77
2019-06-27T05:40:49.627Z,16.80
2019-06-27T05:41:50.556Z,16.70
2019-06-27T05:42:49.632Z,16.70
2019-06-27T05:43:49.588Z,16.91
2019-06-27T05:44:49.581Z,16.82
2019-06-27T05:45:49.567Z,16.92
2019-06-27T05:46:49.561Z,16.92
2019-06-27T05:47:49.551Z,17.05
2019-06-27T05:48:49.555Z,17.21
2019-06-27T05:49:49.546Z,17.18
2019-06-27T05:50:49.525Z,17.20
2019-06-27T05:51:49.505Z,17.21
2019-06-27T05:52:49.500Z,17.15
2019-06-27T05:53:49.495Z,17.21
2019-06-27T05:54:49.470Z,17.14
2019-06-27T05:55:49.470Z,17.09
2019-06-27T05:56:49.449Z,17.14
2019-06-27T05:57:49.450Z,17.25
2019-06-27T05:58:51.923Z,17.22
2019-06-27T05:59:49.416Z,17.22
2019-06-27T06:00:49.416Z,17.32
2019-06-27T06:01:49.390Z,17.22
2019-06-27T06:02:49.389Z,17.12
2019-06-27T06:03:49.368Z,17.00
2019-06-27T06:04:49.370Z,17.06
2019-06-27T06:05:49.365Z,17.03
2019-06-27T06:06:49.336Z,16.99
2019-06-27T06:07:49.324Z,17.00
2019-06-27T06:08:49.308Z,16.95
2019-06-27T06:09:49.307Z,16.85
2019-06-27T06:10:49.308Z,16.87
2019-06-27T06:11:49.285Z,16.81
2019-06-27T06:12:49.906Z,16.78
2019-06-27T06:13:49.255Z,16.81
2019-06-27T06:14:49.243Z,16.77
2019-06-27T06:15:49.235Z,16.73
2019-06-27T06:16:49.237Z,16.75
2019-06-27T06:17:49.211Z,16.77
2019-06-27T06:18:49.206Z,16.73
2019-06-27T06:19:49.242Z,16.72
2019-06-27T06:20:49.178Z,16.72
2019-06-27T06:21:49.169Z,16.77
2019-06-27T06:22:49.182Z,16.77
2019-06-27T06:23:49.156Z,16.78
2019-06-27T06:24:49.133Z,16.85
2019-06-27T06:25:49.121Z,16.85
2019-06-27T06:26:49.113Z,16.80
2019-06-27T06:27:49.114Z,16.87
2019-06-27T06:28:49.095Z,16.87
2019-06-27T06:29:49.109Z,16.88
2019-06-27T06:30:49.089Z,16.92
2019-06-27T06:31:49.622Z,17.03
2019-06-27T06:32:49.054Z,17.03
2019-06-27T06:33:49.036Z,17.05
2019-06-27T06:34:49.035Z,17.12
2019-06-27T06:35:49.018Z,17.17
2019-06-27T06:36:49.036Z,17.17
2019-06-27T06:37:48.997Z,17.30
2019-06-27T06:38:48.979Z,17.33
2019-06-27T06:39:48.976Z,17.45
2019-06-27T06:40:48.960Z,17.36
2019-06-27T06:41:48.954Z,17.40
2019-06-27T06:42:48.955Z,17.42
2019-06-27T06:43:48.923Z,17.49
2019-06-27T06:44:48.916Z,17.43
2019-06-27T06:45:48.911Z,17.42
2019-06-27T06:46:48.894Z,17.40
2019-06-27T06:47:48.895Z,17.43
2019-06-27T06:48:48.911Z,17.54
2019-06-27T06:49:48.862Z,17.53
2019-06-27T06:50:48.852Z,17.60
2019-06-27T06:51:48.844Z,17.73
2019-06-27T06:52:48.825Z,17.66
2019-06-27T06:53:48.819Z,17.76
2019-06-27T06:54:48.823Z,17.89
2019-06-27T06:55:48.796Z,18.09
2019-06-27T06:56:48.782Z,18.19
2019-06-27T06:57:48.773Z,18.26
2019-06-27T06:58:48.788Z,18.42
2019-06-27T06:59:48.759Z,18.42
2019-06-27T07:01:01.130Z,18.41
2019-06-27T07:01:49.754Z,18.50
2019-06-27T07:02:48.722Z,18.53
2019-06-27T07:03:48.723Z,18.51
2019-06-27T07:04:48.699Z,18.53
2019-06-27T07:05:48.686Z,18.49
2019-06-27T07:06:48.683Z,18.50
2019-06-27T07:07:48.689Z,18.54
2019-06-27T07:08:48.675Z,18.60
2019-06-27T07:09:48.650Z,18.75
2019-06-27T07:10:48.645Z,18.84
2019-06-27T07:11:48.643Z,18.97
2019-06-27T07:12:48.608Z,19.12
2019-06-27T07:13:48.616Z,19.25
2019-06-27T07:14:48.593Z,19.28
2019-06-27T07:15:48.588Z,19.34
2019-06-27T07:16:48.588Z,19.38
2019-06-27T07:17:48.565Z,19.46
2019-06-27T07:18:48.548Z,19.49
2019-06-27T07:19:48.537Z,19.62
2019-06-27T07:20:48.536Z,19.71
2019-06-27T07:21:48.529Z,19.94
2019-06-27T07:22:48.528Z,20.00
2019-06-27T07:23:48.495Z,20.20
2019-06-27T07:24:49.430Z,20.25
2019-06-27T07:25:48.477Z,20.41
2019-06-27T07:26:48.464Z,20.68
2019-06-27T07:27:48.470Z,20.82
2019-06-27T07:28:48.442Z,20.93
2019-06-27T07:29:48.450Z,20.85
2019-06-27T07:30:48.428Z,21.00
2019-06-27T07:31:48.417Z,21.08
2019-06-27T07:32:48.423Z,21.15
2019-06-27T07:33:48.403Z,21.28
2019-06-27T07:34:48.381Z,21.42
2019-06-27T07:35:48.367Z,21.55
2019-06-27T07:36:48.369Z,21.56
2019-06-27T07:37:48.358Z,21.70
2019-06-27T07:38:48.338Z,21.73
2019-06-27T07:39:48.354Z,21.75
2019-06-27T07:40:48.332Z,21.66
2019-06-27T07:41:48.319Z,21.75
2019-06-27T07:42:48.311Z,21.70
2019-06-27T07:43:48.289Z,21.71
2019-06-27T07:44:48.277Z,21.74
2019-06-27T07:45:48.322Z,21.90
2019-06-27T07:46:48.266Z,21.91
2019-06-27T07:47:48.253Z,21.94
2019-06-27T07:48:48.243Z,21.82
2019-06-27T07:49:48.228Z,21.67
2019-06-27T07:50:48.222Z,21.67
2019-06-27T07:51:48.223Z,21.94
2019-06-27T07:52:48.203Z,22.06
2019-06-27T07:53:48.188Z,22.23
2019-06-27T07:54:48.180Z,22.29
2019-06-27T07:55:48.165Z,22.33
2019-06-27T07:56:48.175Z,22.42
2019-06-27T07:57:48.147Z,22.67
2019-06-27T07:58:48.147Z,22.78
2019-06-27T07:59:48.125Z,22.89
2019-06-27T08:00:48.170Z,22.81
2019-06-27T08:01:48.126Z,22.94
2019-06-27T08:02:48.102Z,23.03
2019-06-27T08:03:48.090Z,22.79
2019-06-27T08:04:48.077Z,22.51
2019-06-27T08:05:48.069Z,22.44
2019-06-27T08:06:48.091Z,22.30
2019-06-27T08:07:48.485Z,22.26
2019-06-27T08:08:48.038Z,22.26
2019-06-27T08:09:48.025Z,22.35
2019-06-27T08:10:48.012Z,22.44
2019-06-27T08:11:48.002Z,22.63
2019-06-27T08:12:48.017Z,22.75
2019-06-27T08:13:47.990Z,22.97
2019-06-27T08:14:47.984Z,23.07
2019-06-27T08:15:47.969Z,23.07
2019-06-27T08:16:47.964Z,22.99
2019-06-27T08:17:47.964Z,23.03
2019-06-27T08:18:47.940Z,23.07
2019-06-27T08:19:47.932Z,23.14
2019-06-27T08:20:47.919Z,23.11
2019-06-27T08:21:47.963Z,23.07
2019-06-27T08:22:47.931Z,23.11
2019-06-27T08:23:47.904Z,23.09
2019-06-27T08:24:47.878Z,23.04
2019-06-27T08:25:47.866Z,22.99
2019-06-27T08:26:47.863Z,22.89
2019-06-27T08:27:47.860Z,22.76
2019-06-27T08:28:47.855Z,22.76
2019-06-27T08:29:47.827Z,22.85
2019-06-27T08:30:47.817Z,22.72
2019-06-27T08:31:51.929Z,22.84
2019-06-27T08:32:47.812Z,23.04
2019-06-27T08:33:47.791Z,23.09
2019-06-27T08:34:47.787Z,23.15
2019-06-27T08:35:47.771Z,23.31
2019-06-27T08:36:47.758Z,23.59
2019-06-27T08:37:47.815Z,23.87
2019-06-27T08:38:47.741Z,24.14
2019-06-27T08:39:47.735Z,24.33
2019-06-27T08:40:47.731Z,24.66
2019-06-27T08:41:47.716Z,24.86
2019-06-27T08:42:47.737Z,24.86
2019-06-27T08:43:47.697Z,25.11
2019-06-27T08:44:47.697Z,25.05
2019-06-27T08:45:47.679Z,24.90
2019-06-27T08:46:47.662Z,24.67
2019-06-27T08:47:47.660Z,24.59
2019-06-27T08:48:47.653Z,24.63
2019-06-27T08:49:47.659Z,24.68
2019-06-27T08:50:47.633Z,24.92
2019-06-27T08:51:47.620Z,24.92
2019-06-27T08:52:47.610Z,24.98
2019-06-27T08:53:47.598Z,25.11
2019-06-27T08:54:47.605Z,25.14
2019-06-27T08:55:47.582Z,25.12
2019-06-27T08:56:47.577Z,25.14
2019-06-27T08:57:47.566Z,25.09
2019-06-27T08:58:47.575Z,25.07
2019-06-27T08:59:47.539Z,25.09
2019-06-27T09:00:47.530Z,25.08
2019-06-27T09:01:47.586Z,25.20
2019-06-27T09:02:47.594Z,25.27
2019-06-27T09:03:47.504Z,25.39
2019-06-27T09:04:47.495Z,25.63
2019-06-27T09:05:47.492Z,25.61
2019-06-27T09:06:47.477Z,25.63
2019-06-27T09:07:47.464Z,25.66
2019-06-27T09:08:47.473Z,25.61
2019-06-27T09:09:47.446Z,25.51
2019-06-27T09:10:47.474Z,25.41
2019-06-27T09:11:47.432Z,25.51
2019-06-27T09:12:47.419Z,25.41
2019-06-27T09:13:47.410Z,25.51
2019-06-27T09:14:47.409Z,25.45
2019-06-27T09:15:47.399Z,25.34
2019-06-27T09:16:47.402Z,25.23
2019-06-27T09:17:47.372Z,24.98
2019-06-27T09:18:47.363Z,24.93
2019-06-27T09:19:47.354Z,24.92
2019-06-27T09:20:47.363Z,24.83
2019-06-27T09:21:47.337Z,24.64
2019-06-27T09:22:47.335Z,24.46
2019-06-27T09:23:47.353Z,24.39
2019-06-27T09:24:47.306Z,24.36
2019-06-27T09:25:47.369Z,24.21
2019-06-27T09:26:47.308Z,24.18
2019-06-27T09:27:47.285Z,24.18
2019-06-27T09:28:47.275Z,24.27
2019-06-27T09:29:47.268Z,24.31
2019-06-27T09:30:47.270Z,24.19
2019-06-27T09:31:47.247Z,24.48
2019-06-27T09:32:47.258Z,24.80
2019-06-27T09:33:47.233Z,24.94
2019-06-27T09:34:47.216Z,25.09
2019-06-27T09:35:47.254Z,25.19
2019-06-27T09:36:47.210Z,25.31
2019-06-27T09:37:47.224Z,25.42
2019-06-27T09:38:47.243Z,25.42
2019-06-27T09:39:47.188Z,25.51
2019-06-27T09:40:47.208Z,25.41
2019-06-27T09:41:47.229Z,25.69
2019-06-27T09:42:47.217Z,25.71
2019-06-27T09:43:47.164Z,25.93
2019-06-27T09:44:47.155Z,26.06
2019-06-27T09:45:47.134Z,26.13
2019-06-27T09:46:47.132Z,26.36
2019-06-27T09:47:47.128Z,26.01
2019-06-27T09:48:47.128Z,25.86
2019-06-27T09:49:47.090Z,25.63
2019-06-27T09:50:47.083Z,25.29
2019-06-27T09:51:47.067Z,25.29
2019-06-27T09:52:47.063Z,25.44
2019-06-27T09:53:47.053Z,25.64
2019-06-27T09:54:47.054Z,25.82
2019-06-27T09:55:47.556Z,25.85
2019-06-27T09:56:47.028Z,25.97
2019-06-27T09:57:47.029Z,25.94
2019-06-27T09:58:47.046Z,26.04
2019-06-27T09:59:47.017Z,25.91
2019-06-27T10:00:46.991Z,25.94
2019-06-27T10:01:46.979Z,25.67
2019-06-27T10:02:46.981Z,25.90
2019-06-27T10:03:46.971Z,25.96
2019-06-27T10:04:46.969Z,26.09
2019-06-27T10:05:46.947Z,26.17
2019-06-27T10:06:46.946Z,26.16
2019-06-27T10:07:46.945Z,26.17
2019-06-27T10:08:46.933Z,26.23
2019-06-27T10:09:46.932Z,26.13
2019-06-27T10:10:46.910Z,26.20
2019-06-27T10:11:46.903Z,26.34
2019-06-27T10:12:46.884Z,26.54
2019-06-27T10:13:46.905Z,26.98
2019-06-27T10:14:46.889Z,27.28
2019-06-27T10:15:46.863Z,27.27
2019-06-27T10:16:46.854Z,27.42
2019-06-27T10:17:46.849Z,27.62
2019-06-27T10:18:46.841Z,27.68
2019-06-27T10:19:46.834Z,27.69
2019-06-27T10:20:46.831Z,27.55
2019-06-27T10:21:46.809Z,27.58
2019-06-27T10:22:46.804Z,27.33
2019-06-27T10:23:46.793Z,27.12
2019-06-27T10:24:46.793Z,27.03
2019-06-27T10:25:46.788Z,26.79
2019-06-27T10:26:46.769Z,26.79
2019-06-27T10:27:46.760Z,26.84
2019-06-27T10:28:46.751Z,26.97
2019-06-27T10:29:46.753Z,27.03
2019-06-27T10:30:49.155Z,27.05
2019-06-27T10:31:46.747Z,27.06
2019-06-27T10:32:58.509Z,27.13
2019-06-27T10:33:47.739Z,27.30
2019-06-27T10:34:46.700Z,27.38
2019-06-27T10:35:46.715Z,27.61
2019-06-27T10:36:46.686Z,27.69
2019-06-27T10:37:46.683Z,27.83
2019-06-27T10:38:46.674Z,27.96
2019-06-27T10:39:46.676Z,28.05
2019-06-27T10:40:46.668Z,28.20
2019-06-27T10:41:46.666Z,27.93
2019-06-27T10:42:46.646Z,27.90
2019-06-27T10:43:46.641Z,27.63
2019-06-27T10:44:46.628Z,27.42
2019-06-27T10:45:46.654Z,27.23
2019-06-27T10:46:46.646Z,27.16
2019-06-27T10:47:46.594Z,27.40
2019-06-27T10:48:46.595Z,27.49
2019-06-27T10:49:46.586Z,27.62
2019-06-27T10:50:46.740Z,27.86
2019-06-27T10:51:46.581Z,27.91
2019-06-27T10:52:46.568Z,27.84
2019-06-27T10:53:46.547Z,27.71
2019-06-27T10:54:46.547Z,27.39
2019-06-27T10:55:46.532Z,27.21
2019-06-27T10:56:46.534Z,27.05
2019-06-27T10:57:46.516Z,27.21
2019-06-27T10:58:46.609Z,27.46
2019-06-27T10:59:46.502Z,27.52
2019-06-27T11:00:46.491Z,27.62
2019-06-27T11:01:46.521Z,27.74
2019-06-27T11:02:46.479Z,27.65
2019-06-27T11:03:46.475Z,27.42
2019-06-27T11:04:46.455Z,27.08
2019-06-27T11:05:46.449Z,27.06
2019-06-27T11:06:46.449Z,26.98
2019-06-27T11:07:46.447Z,27.06
2019-06-27T11:08:46.436Z,27.05
2019-06-27T11:09:49.994Z,27.11
2019-06-27T11:10:46.420Z,27.13
2019-06-27T11:11:46.411Z,27.16
2019-06-27T11:12:46.405Z,27.15
2019-06-27T11:13:58.185Z,27.06
2019-06-27T11:14:58.737Z,27.28
2019-06-27T11:15:49.347Z,27.42
2019-06-27T11:16:46.375Z,27.39
2019-06-27T11:17:46.368Z,27.15
2019-06-27T11:18:46.357Z,27.11
2019-06-27T11:19:52.374Z,27.27
2019-06-27T11:20:47.323Z,27.55
2019-06-27T11:21:46.329Z,27.69
2019-06-27T11:22:46.318Z,27.71
2019-06-27T11:23:46.316Z,27.83
2019-06-27T11:24:46.290Z,28.01
2019-06-27T11:25:46.282Z,27.98
2019-06-27T11:26:46.301Z,28.28
2019-06-27T11:27:46.268Z,28.42
2019-06-27T11:28:46.289Z,28.27
2019-06-27T11:29:46.258Z,28.21
2019-06-27T11:30:46.246Z,28.23
2019-06-27T11:31:46.241Z,28.21
2019-06-27T11:32:46.222Z,28.40
2019-06-27T11:33:46.224Z,28.39
2019-06-27T11:34:46.229Z,28.45
2019-06-27T11:35:46.206Z,28.54
2019-06-27T11:36:46.752Z,28.54
2019-06-27T11:37:46.184Z,28.61
2019-06-27T11:38:46.199Z,28.67
2019-06-27T11:39:46.173Z,28.76
2019-06-27T11:40:46.165Z,28.62
2019-06-27T11:41:46.159Z,28.58
2019-06-27T11:42:46.147Z,28.61
2019-06-27T11:43:46.155Z,28.70
2019-06-27T11:44:46.147Z,28.72
2019-06-27T11:45:46.120Z,28.64
2019-06-27T11:46:46.118Z,28.46
2019-06-27T11:47:46.099Z,28.20
2019-06-27T11:48:46.123Z,28.11
2019-06-27T11:49:46.083Z,27.86
2019-06-27T11:50:46.073Z,27.25
2019-06-27T11:51:46.069Z,27.06
2019-06-27T11:52:47.280Z,27.06
2019-06-27T11:53:46.053Z,26.97
2019-06-27T11:54:46.049Z,26.76
2019-06-27T11:55:46.050Z,26.59
2019-06-27T11:56:46.030Z,26.51
2019-06-27T11:57:46.020Z,26.50
2019-06-27T11:58:46.011Z,26.69
2019-06-27T11:59:45.996Z,26.84
2019-06-27T12:00:46.023Z,27.09
2019-06-27T12:01:46.003Z,27.24
2019-06-27T12:02:45.977Z,27.53
2019-06-27T12:03:49.810Z,27.83
2019-06-27T12:04:45.956Z,27.96
2019-06-27T12:05:45.952Z,28.05
2019-06-27T12:06:45.953Z,28.25
2019-06-27T12:07:45.932Z,28.48
2019-06-27T12:08:45.919Z,28.45
2019-06-27T12:09:45.911Z,28.42
2019-06-27T12:10:45.902Z,28.38
2019-06-27T12:11:45.910Z,28.39
2019-06-27T12:12:45.885Z,28.55
2019-06-27T12:13:45.876Z,28.79
2019-06-27T12:14:45.865Z,29.08
2019-06-27T12:15:45.857Z,29.27
2019-06-27T12:16:45.869Z,29.44
2019-06-27T12:17:45.858Z,29.62
2019-06-27T12:18:45.833Z,29.54
2019-06-27T12:19:45.822Z,29.37
2019-06-27T12:20:45.822Z,29.25
2019-06-27T12:21:45.813Z,28.95
2019-06-27T12:22:45.830Z,28.70
2019-06-27T12:23:45.801Z,28.52
2019-06-27T12:24:45.782Z,28.50
2019-06-27T12:25:45.781Z,28.43
2019-06-27T12:26:45.770Z,28.52
2019-06-27T12:27:45.766Z,28.82
2019-06-27T12:28:45.756Z,28.95
2019-06-27T12:29:45.765Z,29.08
2019-06-27T12:30:45.738Z,29.10
2019-06-27T12:31:45.724Z,29.08
2019-06-27T12:32:52.680Z,29.14
2019-06-27T12:33:46.705Z,29.05
2019-06-27T12:34:45.716Z,29.18
2019-06-27T12:35:45.685Z,29.11
2019-06-27T12:36:45.715Z,29.20
2019-06-27T12:37:45.684Z,29.10
2019-06-27T12:38:45.678Z,29.11
2019-06-27T12:39:45.676Z,28.87
2019-06-27T12:40:45.671Z,28.74
2019-06-27T12:41:45.662Z,28.79
2019-06-27T12:42:45.625Z,28.83
2019-06-27T12:43:45.646Z,28.89
2019-06-27T12:44:45.671Z,28.80
2019-06-27T12:45:45.630Z,28.87
2019-06-27T12:46:45.604Z,29.00
2019-06-27T12:47:45.596Z,29.02
2019-06-27T12:48:45.606Z,29.14
2019-06-27T12:50:01.180Z,29.03
2019-06-27T12:50:46.576Z,28.85
2019-06-27T12:51:45.600Z,28.72
2019-06-27T12:52:45.564Z,28.76